Aérodrome :
LOGIN :

S'inscrire | Disclaimer

   EN    FR    IT 

 










Légende :    VFR   VFR Marginal   IFR   IFR Intensif   IFR Très Intensif
Visi : 
Plafond : 
>= 8 km
>= 3000ft
5 à 8 km
1000 à 3000 ft
1500m à 5 km
500 à 1000 ft
800 à 1500m
200 à 500 ft
< 800m
< 200 ft
Symboles :   Orages  Brouillard  Fortes neiges  Fortes précipitations  Vent > 20 kt
SIGMETs :   Divers  Orages  Givrage  Turbulence  Onde Orograph.  Cendres Volcan.







- Altitude de l'aérodrome : 2302 ft
- Voir les cartes d'approche


LEAB - Albacete

DERNIER METAR :
  • 142100Z 10008KT 070V130 CAVOK 13/10 Q1021 NOSIG

METARs EXPIRÉS :
  • 142000Z 10009KT 9999 FEW017 13/10 Q1021 NOSIG
  • 141900Z 08009KT CAVOK 13/10 Q1021 NOSIG

TAF TAF LEAB
Valide du 14 à 21h jusqu'au 15 à 06h UTC


142000Z 1421/1506 09010KT 9999 BKN025
PROB30
TEMPO 1421/1506 RA BKN015
PROB30
TEMPO 1503/1506 3000 BR BKN008
Pas de NOTAMs connus pour ce terrain.
1 SIGMET publié pour la FIR Madrid (LECM) :
 
Orages noyés dans la masse
LECM SIGMET 2 VALID 142025/150000 LEVA
LECM MADRID FIR/UIR EMBD TS OBS AT 2025Z S OF LINE N3617 W00322 - N3644 W00155 TOP FL360 STNR NC=



MET'MAP, la Météo Aéronautique d'un coup d'oeil ! - Copyright ORBIFLY Décembre 2007 - Disclaimer

ORBIFLY MET'MAP TEAM :

Programmation & Développement : Alexandra Zaïnal
Conception & Développement : Baudouin d'Aumeries
Co-Programmation & Développement : Marc-Olivier Méhu
Soutien technique & logistique : Manuel Goepfert

Contact : metmap@orbifly.com




SOURCES & CREDITS :

   NOAA